createdAt,value
2019-04-26T00:01:18.848Z,51.98
2019-04-26T00:06:48.249Z,52.64
2019-04-26T00:09:34.984Z,52.69
2019-04-26T00:12:30.875Z,52.97
2019-04-26T00:15:22.892Z,53.46
2019-04-26T00:18:14.654Z,54.13
2019-04-26T00:20:48.339Z,54.64
2019-04-26T00:23:22.656Z,54.86
2019-04-26T00:25:57.659Z,55.53
2019-04-26T00:28:46.397Z,56.04
2019-04-26T00:31:19.996Z,56.42
2019-04-26T00:33:53.686Z,56.88
2019-04-26T00:36:28.232Z,57.57
2019-04-26T00:39:02.898Z,57.84
2019-04-26T00:41:37.444Z,58.01
2019-04-26T00:44:10.961Z,58.40
2019-04-26T00:46:48.483Z,59.16
2019-04-26T00:49:42.930Z,59.06
2019-04-26T00:52:08.958Z,59.30
2019-04-26T00:54:43.189Z,59.78
2019-04-26T00:57:29.184Z,60.15
2019-04-26T01:00:18.534Z,60.08
2019-04-26T01:03:02.381Z,60.50
2019-04-26T01:05:44.852Z,60.90
2019-04-26T01:08:19.251Z,61.09
2019-04-26T01:10:52.749Z,61.39
2019-04-26T01:13:35.340Z,61.36
2019-04-26T01:16:18.367Z,61.30
2019-04-26T01:19:00.893Z,61.75
2019-04-26T01:21:48.684Z,61.88
2019-04-26T01:24:34.381Z,61.89
2019-04-26T01:27:10.798Z,61.90
2019-04-26T01:29:47.364Z,62.13
2019-04-26T01:32:22.074Z,62.05
2019-04-26T01:35:10.359Z,62.34
2019-04-26T01:37:48.124Z,62.87
2019-04-26T01:40:34.837Z,63.08
2019-04-26T01:43:29.547Z,63.12
2019-04-26T01:46:10.278Z,63.20
2019-04-26T01:48:51.711Z,63.46
2019-04-26T01:51:53.722Z,63.85
2019-04-26T01:54:31.868Z,64.28
2019-04-26T01:57:15.847Z,64.49
2019-04-26T01:59:55.068Z,64.36
2019-04-26T02:02:50.295Z,64.48
2019-04-26T02:05:43.590Z,64.60
2019-04-26T02:08:17.263Z,64.93
2019-04-26T02:10:51.094Z,65.05
2019-04-26T02:13:26.832Z,65.03
2019-04-26T02:16:09.328Z,64.86
2019-04-26T02:18:46.730Z,64.90
2019-04-26T02:21:48.058Z,65.10
2019-04-26T02:24:26.459Z,64.82
2019-04-26T02:27:01.760Z,64.95
2019-04-26T02:29:55.770Z,65.21
2019-04-26T02:32:32.739Z,65.31
2019-04-26T02:35:16.087Z,65.37
2019-04-26T02:37:58.683Z,65.41
2019-04-26T02:40:41.009Z,65.68
2019-04-26T02:43:16.842Z,65.64
2019-04-26T02:46:11.646Z,65.40
2019-04-26T02:49:19.968Z,65.36
2019-04-26T02:52:03.668Z,65.57
2019-04-26T02:54:48.383Z,65.91
2019-04-26T02:57:59.324Z,66.34
2019-04-26T03:00:33.887Z,66.41
2019-04-26T03:03:18.594Z,66.47
2019-04-26T03:05:53.222Z,66.77
2019-04-26T03:08:35.304Z,66.72
2019-04-26T03:11:17.916Z,66.91
2019-04-26T03:14:15.734Z,66.75
2019-04-26T03:17:17.849Z,66.76
2019-04-26T03:20:13.923Z,66.52
2019-04-26T03:23:09.966Z,66.66
2019-04-26T03:26:01.360Z,67.10
2019-04-26T03:29:08.567Z,67.46
2019-04-26T03:32:17.713Z,67.35
2019-04-26T03:35:36.873Z,67.16
2019-04-26T03:38:20.699Z,67.04
2019-04-26T03:41:34.369Z,67.12
2019-04-26T03:44:15.495Z,67.36
2019-04-26T03:47:05.868Z,67.45
2019-04-26T03:50:28.043Z,67.24
2019-04-26T03:53:35.461Z,67.47
2019-04-26T03:56:21.021Z,67.76
2019-04-26T03:59:35.201Z,68.11
2019-04-26T04:02:49.818Z,68.12
2019-04-26T04:05:33.992Z,68.14
2019-04-26T04:08:11.789Z,68.26
2019-04-26T04:10:57.841Z,68.59
2019-04-26T04:13:53.822Z,68.80
2019-04-26T04:17:30.749Z,68.78
2019-04-26T04:20:48.128Z,68.76
2019-04-26T04:23:53.085Z,69.13
2019-04-26T04:26:50.065Z,69.32
2019-04-26T04:30:01.855Z,70.06
2019-04-26T04:33:07.806Z,70.33
2019-04-26T04:35:50.234Z,70.40
2019-04-26T04:39:12.174Z,70.39
2019-04-26T04:42:08.723Z,70.28
2019-04-26T04:45:26.114Z,70.53
2019-04-26T04:48:20.505Z,70.60
2019-04-26T04:51:32.335Z,70.72
2019-04-26T04:54:16.376Z,70.98
2019-04-26T04:57:36.498Z,71.29
2019-04-26T05:00:53.453Z,71.11
2019-04-26T05:03:45.057Z,71.32
2019-04-26T05:06:47.233Z,71.63
2019-04-26T05:09:33.791Z,71.81
2019-04-26T05:12:30.965Z,72.26
2019-04-26T05:15:50.999Z,72.61
2019-04-26T05:18:48.564Z,72.98
2019-04-26T05:21:39.919Z,72.85
2019-04-26T05:24:38.224Z,72.91
2019-04-26T05:27:50.930Z,73.15
2019-04-26T05:31:18.049Z,73.37
2019-04-26T05:34:36.063Z,73.45
2019-04-26T05:37:55.671Z,73.68
2019-04-26T05:41:06.074Z,73.65
2019-04-26T05:43:56.534Z,73.63
2019-04-26T05:46:59.466Z,73.70
2019-04-26T05:50:41.986Z,73.66
2019-04-26T05:54:36.836Z,73.67
2019-04-26T05:57:44.518Z,73.60
2019-04-26T06:00:43.655Z,73.58
2019-04-26T06:03:50.969Z,73.34
2019-04-26T06:06:31.310Z,73.02
2019-04-26T06:10:05.421Z,73.12
2019-04-26T06:13:00.545Z,72.91
2019-04-26T06:16:08.090Z,72.11
2019-04-26T06:19:26.820Z,71.74
2019-04-26T06:22:07.228Z,71.42
2019-04-26T06:25:14.373Z,70.76
2019-04-26T06:28:23.722Z,70.89
2019-04-26T06:31:07.803Z,70.38
2019-04-26T06:34:01.405Z,70.20
2019-04-26T06:36:48.157Z,70.64
2019-04-26T06:39:55.975Z,70.50
2019-04-26T06:43:19.534Z,70.41
2019-04-26T06:46:39.151Z,70.16
2019-04-26T06:49:35.088Z,69.88
2019-04-26T06:52:13.261Z,69.11
2019-04-26T06:59:17.205Z,68.25
2019-04-26T07:02:28.720Z,68.40
2019-04-26T07:05:18.458Z,69.02
2019-04-26T07:08:25.908Z,69.15
2019-04-26T07:12:01.596Z,68.76
2019-04-26T07:15:27.926Z,68.83
2019-04-26T07:18:13.676Z,68.66
2019-04-26T07:21:11.791Z,68.80
2019-04-26T07:24:35.842Z,68.33
2019-04-26T07:28:10.617Z,68.58
2019-04-26T07:31:15.207Z,68.21
2019-04-26T07:34:19.312Z,68.42
2019-04-26T07:37:38.992Z,68.72
2019-04-26T07:40:53.458Z,68.60
2019-04-26T07:44:01.000Z,68.66
2019-04-26T07:47:16.233Z,67.81
2019-04-26T07:50:29.681Z,67.10
2019-04-26T07:53:55.344Z,65.22
2019-04-26T07:57:15.386Z,64.97
2019-04-26T08:00:17.852Z,64.78
2019-04-26T08:03:10.897Z,64.53
2019-04-26T08:06:13.763Z,65.56
2019-04-26T08:08:57.938Z,64.70
2019-04-26T08:11:53.428Z,64.37
2019-04-26T08:14:51.036Z,64.12
2019-04-26T08:17:48.801Z,64.33
2019-04-26T08:20:43.704Z,63.64
2019-04-26T08:23:39.264Z,62.73
2019-04-26T08:26:19.354Z,63.13
2019-04-26T08:28:56.668Z,63.47
2019-04-26T08:31:33.955Z,63.16
2019-04-26T08:34:20.626Z,63.56
2019-04-26T08:37:06.706Z,63.32
2019-04-26T08:39:45.589Z,62.71
2019-04-26T08:42:23.488Z,61.74
2019-04-26T08:45:13.568Z,61.84
2019-04-26T08:48:13.671Z,61.62
2019-04-26T08:50:49.236Z,62.59
2019-04-26T08:53:25.347Z,62.30
2019-04-26T08:56:01.637Z,62.00
2019-04-26T08:58:38.796Z,61.18
2019-04-26T09:01:42.133Z,61.71
2019-04-26T09:04:52.277Z,61.43
2019-04-26T09:07:48.726Z,61.18
2019-04-26T09:10:34.295Z,60.38
2019-04-26T09:13:10.578Z,60.69
2019-04-26T09:16:17.769Z,60.09
2019-04-26T09:18:54.157Z,58.67
2019-04-26T09:21:32.883Z,58.67
2019-04-26T09:24:34.115Z,58.26
2019-04-26T09:27:12.775Z,58.26
2019-04-26T09:30:04.894Z,58.44
2019-04-26T09:32:58.336Z,58.44
2019-04-26T09:35:33.240Z,58.33
2019-04-26T09:38:06.437Z,58.77
2019-04-26T09:40:48.536Z,58.88
2019-04-26T09:43:30.650Z,59.18
2019-04-26T09:46:52.872Z,59.32
2019-04-26T09:49:32.906Z,59.01
2019-04-26T09:52:09.954Z,59.46
2019-04-26T09:54:43.704Z,59.31
2019-04-26T09:57:17.161Z,59.89
2019-04-26T09:59:51.486Z,59.89
2019-04-26T10:02:35.940Z,57.58
2019-04-26T10:05:22.408Z,58.79
2019-04-26T10:07:53.332Z,58.79
2019-04-26T10:10:30.936Z,59.25
2019-04-26T10:13:16.256Z,57.87
2019-04-26T10:16:17.601Z,57.87
2019-04-26T10:18:58.340Z,58.48
2019-04-26T10:21:34.264Z,58.81
2019-04-26T10:24:08.690Z,58.67
2019-04-26T10:26:50.832Z,58.29
2019-04-26T10:29:25.712Z,58.37
2019-04-26T10:32:08.916Z,59.31
2019-04-26T10:34:46.935Z,59.31
2019-04-26T10:37:17.651Z,59.03
2019-04-26T10:39:51.142Z,60.43
2019-04-26T10:42:25.024Z,60.68
2019-04-26T10:44:58.863Z,60.68
2019-04-26T10:47:34.294Z,60.44
2019-04-26T10:50:16.747Z,60.47
2019-04-26T10:53:08.933Z,60.74
2019-04-26T10:55:59.881Z,60.96
2019-04-26T10:58:59.156Z,60.72
2019-04-26T11:01:53.902Z,60.18
2019-04-26T11:04:29.122Z,59.81
2019-04-26T11:07:11.675Z,59.61
2019-04-26T11:09:44.989Z,59.63
2019-04-26T11:12:19.146Z,58.59
2019-04-26T11:15:01.421Z,59.40
2019-04-26T11:17:36.178Z,59.70
2019-04-26T11:20:10.542Z,57.41
2019-04-26T11:22:45.002Z,56.66
2019-04-26T11:25:18.332Z,56.06
2019-04-26T11:27:52.382Z,55.00
2019-04-26T11:30:25.893Z,55.36
2019-04-26T11:32:59.791Z,56.07
2019-04-26T11:35:34.758Z,56.70
2019-04-26T11:38:10.835Z,56.70
2019-04-26T11:40:44.312Z,56.79
2019-04-26T11:43:28.566Z,56.79
2019-04-26T11:46:04.529Z,57.30
2019-04-26T11:48:37.095Z,58.01
2019-04-26T11:51:10.998Z,58.38
2019-04-26T11:53:55.089Z,59.56
2019-04-26T11:56:28.541Z,59.61
2019-04-26T11:59:02.534Z,59.73
2019-04-26T12:01:36.655Z,59.01
2019-04-26T12:04:45.300Z,59.01
2019-04-26T12:07:46.159Z,60.00
2019-04-26T12:10:19.548Z,60.70
2019-04-26T12:13:05.823Z,60.58
2019-04-26T12:15:39.169Z,60.28
2019-04-26T12:18:17.859Z,60.17
2019-04-26T12:20:51.074Z,60.76
2019-04-26T12:23:35.352Z,61.60
2019-04-26T12:26:21.751Z,61.70
2019-04-26T12:28:53.030Z,61.03
2019-04-26T12:31:26.648Z,61.18
2019-04-26T12:34:00.496Z,61.46
2019-04-26T12:36:33.580Z,61.09
2019-04-26T12:39:09.911Z,61.05
2019-04-26T12:41:43.868Z,60.90
2019-04-26T12:44:17.251Z,61.13
2019-04-26T12:47:26.750Z,61.65
2019-04-26T12:50:00.527Z,62.10
2019-04-26T12:52:33.803Z,62.28
2019-04-26T12:55:07.430Z,62.56
2019-04-26T12:57:42.317Z,62.44
2019-04-26T13:00:33.121Z,62.42
2019-04-26T13:03:20.204Z,62.72
2019-04-26T13:05:49.251Z,63.14
2019-04-26T13:08:23.575Z,63.43
2019-04-26T13:11:18.879Z,64.08
2019-04-26T13:14:20.383Z,64.66
2019-04-26T13:17:02.273Z,64.82
2019-04-26T13:19:35.906Z,65.30
2019-04-26T13:22:22.008Z,65.61
2019-04-26T13:24:55.872Z,65.81
2019-04-26T13:27:33.551Z,65.66
2019-04-26T13:30:10.602Z,66.32
2019-04-26T13:32:49.186Z,66.21
2019-04-26T13:35:22.378Z,66.49
2019-04-26T13:37:56.339Z,66.26
2019-04-26T13:40:30.533Z,66.62
2019-04-26T13:43:03.767Z,67.46
2019-04-26T13:45:50.767Z,68.83
2019-04-26T13:48:31.004Z,69.20
2019-04-26T13:51:06.817Z,70.23
2019-04-26T13:53:40.974Z,71.09
2019-04-26T13:56:14.492Z,71.18
2019-04-26T13:58:58.290Z,70.67
2019-04-26T14:01:32.751Z,71.22
2019-04-26T14:04:17.848Z,70.43
2019-04-26T14:06:52.805Z,70.24
2019-04-26T14:09:26.648Z,71.48
2019-04-26T14:12:03.344Z,71.24
2019-04-26T14:14:35.289Z,71.94
2019-04-26T14:17:08.582Z,72.41
2019-04-26T14:19:45.303Z,72.95
2019-04-26T14:22:22.875Z,72.96
2019-04-26T14:25:16.213Z,72.31
2019-04-26T14:27:51.829Z,72.48
2019-04-26T14:30:25.490Z,73.20
2019-04-26T14:33:08.613Z,74.02
2019-04-26T14:35:52.137Z,75.31
2019-04-26T14:38:27.902Z,75.44
2019-04-26T14:41:04.223Z,75.55
2019-04-26T14:43:40.878Z,76.26
2019-04-26T14:46:19.303Z,75.02
2019-04-26T14:49:01.395Z,74.37
2019-04-26T14:51:27.847Z,74.55
2019-04-26T14:54:01.022Z,73.38
2019-04-26T14:56:33.882Z,73.80
2019-04-26T14:59:09.911Z,74.78
2019-04-26T15:02:22.737Z,73.45
2019-04-26T15:05:09.442Z,72.69
2019-04-26T15:07:49.442Z,73.69
2019-04-26T15:10:19.028Z,73.61
2019-04-26T15:13:01.438Z,74.63
2019-04-26T15:15:33.195Z,75.60
2019-04-26T15:18:03.074Z,75.69
2019-04-26T15:20:37.315Z,75.26
2019-04-26T15:23:10.847Z,75.36
2019-04-26T15:25:48.843Z,75.50
2019-04-26T15:28:22.120Z,75.88
2019-04-26T15:30:55.412Z,75.73
2019-04-26T15:33:28.592Z,75.81
2019-04-26T15:36:02.394Z,75.64
2019-04-26T15:38:41.716Z,75.91
2019-04-26T15:41:35.155Z,76.03
2019-04-26T15:44:28.452Z,76.17
2019-04-26T15:47:10.037Z,77.07
2019-04-26T15:50:03.899Z,77.29
2019-04-26T15:52:37.550Z,77.74
2019-04-26T15:55:11.191Z,78.48
2019-04-26T15:57:44.744Z,78.86
2019-04-26T16:00:18.229Z,79.28
2019-04-26T16:02:52.802Z,79.74
2019-04-26T16:05:29.879Z,79.86
2019-04-26T16:08:04.574Z,80.36
2019-04-26T16:10:49.609Z,80.76
2019-04-26T16:13:24.092Z,81.24
2019-04-26T16:15:59.551Z,81.17
2019-04-26T16:18:32.356Z,81.43
2019-04-26T16:21:06.169Z,81.39
2019-04-26T16:23:53.641Z,81.48
2019-04-26T16:26:24.233Z,81.46
2019-04-26T16:29:25.663Z,81.33
2019-04-26T16:32:21.653Z,81.56
2019-04-26T16:34:52.834Z,81.68
2019-04-26T16:37:26.418Z,82.12
2019-04-26T16:39:59.950Z,82.43
2019-04-26T16:42:49.737Z,82.60
2019-04-26T16:45:37.215Z,82.26
2019-04-26T16:48:25.440Z,82.71
2019-04-26T16:51:00.986Z,82.90
2019-04-26T16:53:45.661Z,83.13
2019-04-26T16:56:06.879Z,83.04
2019-04-26T16:58:44.987Z,82.91
2019-04-26T17:01:15.763Z,82.57
2019-04-26T17:03:49.652Z,82.63
2019-04-26T17:06:23.411Z,82.49
2019-04-26T17:09:01.158Z,82.70
2019-04-26T17:11:48.875Z,82.98
2019-04-26T17:14:33.940Z,82.65
2019-04-26T17:17:15.551Z,82.72
2019-04-26T17:19:52.110Z,82.80
2019-04-26T17:23:00.629Z,82.91
2019-04-26T17:26:04.193Z,83.09
2019-04-26T17:28:37.887Z,83.18
2019-04-26T17:31:12.466Z,83.26
2019-04-26T17:33:55.362Z,83.25
2019-04-26T17:36:38.283Z,83.75
2019-04-26T17:39:22.334Z,84.23
2019-04-26T17:41:55.791Z,84.30
2019-04-26T17:44:30.737Z,84.28
2019-04-26T17:47:08.353Z,84.08
2019-04-26T17:49:43.785Z,84.34
2019-04-26T17:52:16.237Z,84.43
2019-04-26T17:54:51.953Z,84.34
2019-04-26T17:57:33.653Z,84.48
2019-04-26T18:00:27.182Z,84.42
2019-04-26T18:03:07.545Z,84.43
2019-04-26T18:05:55.877Z,84.63
2019-04-26T18:08:33.693Z,84.55
2019-04-26T18:10:49.359Z,84.53
2019-04-26T18:13:32.196Z,84.48
2019-04-26T18:16:06.833Z,84.62
2019-04-26T18:19:05.308Z,84.78
2019-04-26T18:21:59.983Z,84.78
2019-04-26T18:24:34.968Z,85.01
2019-04-26T18:27:08.656Z,84.91
2019-04-26T18:29:43.660Z,85.00
2019-04-26T18:32:17.019Z,85.05
2019-04-26T18:35:00.979Z,85.51
2019-04-26T18:37:36.480Z,85.67
2019-04-26T18:40:09.761Z,85.95
2019-04-26T18:42:43.422Z,86.03
2019-04-26T18:45:25.893Z,86.16
2019-04-26T18:47:54.796Z,86.08
2019-04-26T18:50:32.798Z,86.25
2019-04-26T18:53:22.182Z,86.51
2019-04-26T18:55:59.286Z,86.36
2019-04-26T18:58:34.762Z,86.47
2019-04-26T19:01:06.856Z,86.53
2019-04-26T19:03:40.095Z,86.82
2019-04-26T19:06:31.111Z,87.02
2019-04-26T19:09:09.399Z,87.12
2019-04-26T19:11:48.622Z,87.20
2019-04-26T19:15:02.721Z,87.34
2019-04-26T19:18:05.420Z,87.46
2019-04-26T19:20:53.675Z,87.49
2019-04-26T19:23:44.735Z,87.70
2019-04-26T19:26:33.124Z,87.63
2019-04-26T19:29:09.954Z,87.73
2019-04-26T19:31:37.526Z,87.97
2019-04-26T19:34:11.677Z,88.06
2019-04-26T19:36:56.377Z,88.01
2019-04-26T19:39:38.595Z,87.86
2019-04-26T19:42:30.700Z,88.10
2019-04-26T19:45:14.243Z,88.25
2019-04-26T19:47:53.327Z,88.27
2019-04-26T19:50:50.028Z,88.36
2019-04-26T19:53:51.733Z,88.44
2019-04-26T19:56:31.514Z,88.18
2019-04-26T19:59:05.297Z,87.96
2019-04-26T20:01:40.216Z,87.84
2019-04-26T20:04:13.660Z,87.60
2019-04-26T20:06:48.472Z,87.45
2019-04-26T20:09:32.534Z,87.28
2019-04-26T20:12:14.920Z,87.05
2019-04-26T20:14:51.210Z,86.84
2019-04-26T20:17:23.435Z,86.77
2019-04-26T20:19:57.343Z,86.82
2019-04-26T20:22:32.113Z,87.08
2019-04-26T20:25:18.857Z,87.33
2019-04-26T20:27:53.774Z,87.39
2019-04-26T20:31:07.671Z,87.26
2019-04-26T20:33:38.266Z,86.99
2019-04-26T20:36:21.650Z,86.89
2019-04-26T20:39:07.761Z,87.09
2019-04-26T20:42:01.154Z,87.39
2019-04-26T20:44:50.475Z,87.42
2019-04-26T20:47:17.428Z,87.52
2019-04-26T20:50:01.364Z,87.49
2019-04-26T20:52:32.866Z,87.56
2019-04-26T20:55:06.658Z,87.57
2019-04-26T20:57:42.710Z,87.45
2019-04-26T21:00:18.094Z,87.33
2019-04-26T21:02:54.163Z,87.21
2019-04-26T21:05:27.441Z,87.03
2019-04-26T21:08:03.450Z,86.86
2019-04-26T21:10:48.168Z,87.01
2019-04-26T21:13:23.686Z,87.25
2019-04-26T21:15:58.453Z,87.35
2019-04-26T21:18:33.794Z,87.34
2019-04-26T21:21:10.673Z,87.31
2019-04-26T21:23:43.989Z,87.20
2019-04-26T21:26:32.324Z,87.31
2019-04-26T21:29:20.460Z,87.48
2019-04-26T21:32:02.305Z,87.45
2019-04-26T21:34:36.572Z,87.49
2019-04-26T21:37:35.984Z,87.30
2019-04-26T21:40:34.700Z,87.00
2019-04-26T21:43:08.291Z,87.05
2019-04-26T21:45:43.949Z,87.06
2019-04-26T21:48:18.383Z,87.10
2019-04-26T21:50:53.748Z,87.24
2019-04-26T21:53:29.712Z,87.00
2019-04-26T21:56:03.013Z,86.80
2019-04-26T21:58:37.102Z,86.69
2019-04-26T22:01:25.267Z,86.80
2019-04-26T22:04:10.853Z,86.88
2019-04-26T22:06:44.758Z,87.06
2019-04-26T22:09:52.936Z,86.97
2019-04-26T22:12:30.928Z,87.08
2019-04-26T22:15:25.285Z,87.16
2019-04-26T22:18:24.711Z,87.18
2019-04-26T22:21:28.880Z,87.28
2019-04-26T22:24:16.855Z,87.44
2019-04-26T22:26:50.422Z,87.46
2019-04-26T22:29:25.793Z,87.46
2019-04-26T22:31:59.013Z,87.37
2019-04-26T22:34:33.167Z,87.26
2019-04-26T22:37:11.142Z,87.18
2019-04-26T22:39:44.221Z,87.38
2019-04-26T22:42:18.321Z,87.51
2019-04-26T22:45:09.486Z,87.60
2019-04-26T22:47:53.603Z,87.49
2019-04-26T22:50:40.839Z,87.39
2019-04-26T22:53:14.384Z,87.43
2019-04-26T22:55:48.296Z,87.45
2019-04-26T22:58:30.986Z,87.50
2019-04-26T23:01:06.345Z,87.61
2019-04-26T23:03:41.129Z,87.94
2019-04-26T23:06:27.319Z,88.19
2019-04-26T23:09:20.745Z,88.31
2019-04-26T23:12:00.020Z,88.33
2019-04-26T23:14:48.166Z,88.04
2019-04-26T23:17:40.511Z,87.89
2019-04-26T23:20:34.390Z,87.77
2019-04-26T23:23:08.523Z,87.80
2019-04-26T23:25:52.402Z,88.06
2019-04-26T23:28:27.769Z,88.17
2019-04-26T23:31:05.131Z,88.08
2019-04-26T23:33:36.589Z,88.22
2019-04-26T23:36:10.847Z,88.31
2019-04-26T23:38:53.648Z,88.21
2019-04-26T23:41:37.631Z,88.14
2019-04-26T23:44:10.079Z,88.04
2019-04-26T23:46:43.372Z,87.89
2019-04-26T23:49:19.320Z,87.79
2019-04-26T23:51:53.362Z,87.80
2019-04-26T23:54:28.012Z,87.83
2019-04-26T23:57:13.827Z,87.82
2019-04-26T23:59:51.091Z,87.81
